Time;durP1;ratioP1;P1;durP2;ratioP2;P2;SDS_P1;SDS_P2;PMS_P1;PMS_P2;Temp;Humidity;BMP_temperature;BMP_pressure;BME280_temperature;BME280_humidity;BME280_pressure;Samples;Min_cycle;Max_cycle;Signal;HPM_P1;HPM_P2
2022/11/06 00:01:10;;;;;;;20.70;11.53;;;;;;;14.80;75.72;96828.28;4969136;28;20203;-74
2022/11/06 00:03:38;;;;;;;18.07;10.60;;;;;;;14.83;75.90;96828.94;4968406;28;20220;-75
2022/11/06 00:08:55;;;;;;;17.77;11.33;;;;;;;14.85;74.84;96821.03;4967288;28;20664;-74
2022/11/06 00:11:22;;;;;;;20.77;13.70;;;;;;;14.79;74.71;96830.09;4968556;28;20190;-74
2022/11/06 00:13:51;;;;;;;21.10;14.23;;;;;;;14.63;74.56;96819.81;4968715;28;20199;-75
2022/11/06 00:16:18;;;;;;;23.20;14.57;;;;;;;14.63;74.06;96819.00;4968461;28;20192;-74
2022/11/06 00:18:46;;;;;;;21.60;14.90;;;;;;;14.52;74.32;96826.69;4969051;28;20193;-74
2022/11/06 00:21:22;;;;;;;25.37;14.37;;;;;;;14.29;74.98;96828.16;4968030;28;20230;-75
2022/11/06 00:23:50;;;;;;;30.10;14.83;;;;;;;14.21;75.42;96835.59;4967101;28;20242;-73
2022/11/06 00:26:19;;;;;;;25.80;14.57;;;;;;;14.05;75.92;96824.47;4968350;28;20200;-74
2022/11/06 00:28:47;;;;;;;24.03;15.10;;;;;;;13.96;76.22;96834.59;4968402;28;20208;-74
2022/11/06 00:31:19;;;;;;;26.03;14.73;;;;;;;13.99;76.35;96840.47;4967050;28;20202;-73
2022/11/06 00:33:46;;;;;;;23.20;15.40;;;;;;;13.69;77.73;96839.75;4967947;28;20229;-74
2022/11/06 00:36:16;;;;;;;23.17;15.93;;;;;;;13.55;78.09;96829.34;4968729;28;20206;-74
2022/11/06 00:38:43;;;;;;;22.67;15.77;;;;;;;13.20;79.65;96826.28;4968303;28;20187;-73
2022/11/06 00:41:13;;;;;;;30.00;17.00;;;;;;;12.96;80.76;96825.91;4968328;28;20187;-73
2022/11/06 00:43:40;;;;;;;29.73;16.80;;;;;;;13.16;79.88;96834.34;4968515;28;20223;-73
2022/11/06 00:46:10;;;;;;;24.00;16.90;;;;;;;12.95;80.77;96834.66;4968116;28;20198;-74
2022/11/06 00:48:38;;;;;;;24.93;16.70;;;;;;;12.83;81.24;96829.31;4966797;28;20270;-73
2022/11/06 00:51:17;;;;;;;24.00;16.70;;;;;;;12.79;81.43;96827.81;4966524;28;20197;-73
2022/11/06 00:53:45;;;;;;;31.87;17.20;;;;;;;12.73;82.05;96833.38;4968313;28;20195;-74
2022/11/06 00:56:17;;;;;;;33.87;17.47;;;;;;;12.82;82.18;96831.06;4967790;28;20194;-74
2022/11/06 00:58:45;;;;;;;24.97;15.57;;;;;;;12.79;82.10;96823.47;4966781;28;20685;-73
2022/11/06 01:01:23;;;;;;;32.00;18.10;;;;;;;12.84;81.17;96834.44;4967989;28;20819;-73
2022/11/06 01:04:16;;;;;;;31.37;14.97;;;;;;;12.87;81.34;96831.66;4966305;28;20714;-75
2022/11/06 01:06:49;;;;;;;26.70;15.17;;;;;;;12.88;81.44;96832.50;4968416;28;20197;-74
2022/11/06 01:09:23;;;;;;;25.87;15.47;;;;;;;13.00;81.14;96826.59;4966417;28;20206;-75
2022/11/06 01:11:54;;;;;;;25.63;14.30;;;;;;;13.06;80.99;96821.88;4967957;28;20291;-75
2022/11/06 01:14:42;;;;;;;21.33;14.30;;;;;;;13.10;81.28;96819.09;4967993;28;20579;-76
2022/11/06 01:17:12;;;;;;;25.73;14.80;;;;;;;13.07;81.55;96818.38;4966254;28;20238;-75
2022/11/06 01:19:39;;;;;;;23.77;13.80;;;;;;;13.18;81.41;96817.72;4968015;28;20226;-75
2022/11/06 01:22:06;;;;;;;23.20;13.43;;;;;;;13.34;80.42;96815.03;4967398;28;20201;-75
2022/11/06 01:24:33;;;;;;;21.93;14.33;;;;;;;13.40;79.99;96812.91;4967747;28;20785;-74
2022/11/06 01:27:01;;;;;;;21.60;13.30;;;;;;;13.47;79.11;96811.63;4967685;28;20186;-74
2022/11/06 01:29:47;;;;;;;24.73;13.87;;;;;;;13.51;78.14;96801.84;4952900;28;20713;-74
2022/11/06 01:32:14;;;;;;;23.27;14.13;;;;;;;13.57;77.99;96791.91;4968044;28;20226;-74
2022/11/06 01:34:41;;;;;;;22.53;13.03;;;;;;;13.61;78.01;96809.00;4967246;28;20202;-73
2022/11/06 01:37:08;;;;;;;21.43;13.33;;;;;;;13.67;78.68;96815.59;4968060;28;20192;-73
2022/11/06 01:39:40;;;;;;;20.83;13.20;;;;;;;13.65;79.01;96801.84;4967432;28;20191;-75
2022/11/06 01:42:10;;;;;;;27.37;13.90;;;;;;;13.56;78.81;96807.63;4967692;28;20693;-73
2022/11/06 01:44:43;;;;;;;24.53;12.53;;;;;;;13.52;80.27;96819.13;4969886;28;20222;-73
2022/11/06 01:47:23;;;;;;;28.27;13.97;;;;;;;13.20;80.78;96800.28;4971345;28;20184;-73
2022/11/06 01:49:55;;;;;;;23.17;12.87;;;;;;;13.08;82.65;96824.41;4972060;28;20206;-74
2022/11/06 01:52:23;;;;;;;25.03;13.57;;;;;;;13.04;81.94;96815.13;4971013;28;20754;-73
2022/11/06 01:54:53;;;;;;;22.00;13.63;;;;;;;13.15;81.96;96809.28;4971419;28;20201;-73
2022/11/06 01:57:21;;;;;;;28.37;14.77;;;;;;;13.00;82.00;96806.59;4971045;28;20225;-73
2022/11/06 01:59:51;;;;;;;21.93;13.17;;;;;;;13.08;81.99;96814.00;4969662;28;20193;-73
2022/11/06 02:02:18;;;;;;;23.77;14.67;;;;;;;12.97;82.13;96812.00;4971337;28;20195;-74
2022/11/06 02:04:47;;;;;;;27.70;15.70;;;;;;;12.91;82.33;96814.97;4970288;28;20282;-73
2022/11/06 02:07:16;;;;;;;22.10;13.97;;;;;;;12.65;82.90;96805.22;4971344;28;20236;-74
2022/11/06 02:09:43;;;;;;;28.23;14.60;;;;;;;12.72;82.71;96805.72;4969441;28;20191;-76
2022/11/06 02:12:25;;;;;;;23.07;13.80;;;;;;;12.61;82.55;96808.94;4971055;28;20192;-74
2022/11/06 02:15:18;;;;;;;23.30;14.73;;;;;;;12.56;82.42;96797.97;4970862;28;20197;-74
2022/11/06 02:18:00;;;;;;;22.20;14.40;;;;;;;12.61;82.48;96815.91;4970327;28;20255;-74
2022/11/06 02:20:38;;;;;;;21.10;13.77;;;;;;;12.67;81.91;96803.41;4970951;28;20229;-74
2022/11/06 02:23:14;;;;;;;25.30;13.80;;;;;;;12.71;82.17;96804.91;4970273;28;20194;-74
2022/11/06 02:25:45;;;;;;;21.70;13.57;;;;;;;12.78;81.02;96808.78;4969130;28;20579;-74
2022/11/06 02:28:31;;;;;;;22.63;13.77;;;;;;;12.65;81.29;96800.03;4970732;28;20198;-74
2022/11/06 02:31:02;;;;;;;20.43;13.50;;;;;;;12.67;81.29;96800.81;4970100;28;20205;-74
2022/11/06 02:33:34;;;;;;;25.63;13.77;;;;;;;12.73;81.35;96804.81;4970826;28;20192;-74
2022/11/06 02:36:08;;;;;;;25.70;12.90;;;;;;;12.77;80.93;96808.88;4970322;28;20189;-74
2022/11/06 02:38:50;;;;;;;22.97;13.17;;;;;;;12.77;80.37;96803.69;4970403;28;20194;-74
2022/11/06 02:41:21;;;;;;;24.37;13.17;;;;;;;12.66;80.78;96801.72;4970535;28;20200;-74
2022/11/06 02:43:53;;;;;;;20.67;13.33;;;;;;;12.71;81.17;96809.25;4968438;28;20629;-74
2022/11/06 02:46:38;;;;;;;24.57;13.33;;;;;;;12.53;81.11;96800.72;4970668;28;20210;-74
2022/11/06 02:49:15;;;;;;;23.63;12.97;;;;;;;12.49;81.71;96808.81;4968852;28;20201;-74
2022/11/06 02:51:50;;;;;;;21.57;12.53;;;;;;;12.63;81.30;96824.44;4968906;28;20694;-74
2022/11/06 02:54:20;;;;;;;23.33;12.87;;;;;;;12.62;81.27;96817.56;4970377;28;20282;-74
2022/11/06 02:56:51;;;;;;;25.07;12.93;;;;;;;12.43;81.54;96809.97;4968716;28;20237;-74
2022/11/06 02:59:23;;;;;;;23.33;13.13;;;;;;;12.24;81.22;96804.97;4970501;28;20537;-73
2022/11/06 03:02:01;;;;;;;23.87;13.90;;;;;;;12.29;82.04;96812.53;4969896;28;20189;-74
2022/11/06 03:04:43;;;;;;;22.50;13.47;;;;;;;12.13;82.17;96819.50;4969830;28;20232;-74
2022/11/06 03:07:32;;;;;;;18.67;13.70;;;;;;;12.23;82.00;96821.50;4970071;28;20606;-74
2022/11/06 03:09:59;;;;;;;22.00;13.70;;;;;;;12.11;82.26;96823.94;4969548;28;20204;-74
2022/11/06 03:12:35;;;;;;;22.53;14.20;;;;;;;11.91;82.46;96811.22;4970187;28;20228;-74
2022/11/06 03:15:14;;;;;;;25.93;13.83;;;;;;;11.90;82.84;96827.69;4969846;28;20191;-74
2022/11/06 03:18:11;;;;;;;25.07;15.03;;;;;;;11.82;83.54;96816.91;4969638;28;20204;-74
2022/11/06 03:20:58;;;;;;;22.30;14.07;;;;;;;11.97;83.13;96819.47;4967814;28;20279;-74
2022/11/06 03:23:47;;;;;;;25.53;13.67;;;;;;;12.00;82.40;96826.28;4969281;28;20237;-74
2022/11/06 03:26:23;;;;;;;26.17;15.07;;;;;;;12.03;82.19;96820.94;4969442;28;20287;-74
2022/11/06 03:29:02;;;;;;;25.03;15.43;;;;;;;11.93;83.05;96822.34;4969679;28;20192;-75
2022/11/06 03:31:35;;;;;;;20.70;14.80;;;;;;;11.94;82.54;96827.44;4967680;28;20284;-75
2022/11/06 03:34:11;;;;;;;24.93;14.90;;;;;;;11.94;83.10;96830.06;4969698;28;20194;-75
2022/11/06 03:36:50;;;;;;;22.20;14.87;;;;;;;11.97;82.61;96829.06;4969303;28;20283;-75
2022/11/06 03:39:27;;;;;;;25.77;14.87;;;;;;;12.15;82.12;96836.66;4969248;28;20195;-75
2022/11/06 03:42:08;;;;;;;21.50;13.77;;;;;;;12.24;80.92;96840.53;4969570;28;20190;-75
2022/11/06 03:44:40;;;;;;;46.03;26.33;;;;;;;12.06;79.93;96828.53;4968776;28;20227;-75
2022/11/06 03:47:29;;;;;;;30.03;13.93;;;;;;;11.86;79.35;96836.56;4969466;28;20200;-75
2022/11/06 03:50:02;;;;;;;22.07;12.70;;;;;;;11.64;78.72;96838.63;4969147;28;20194;-75
2022/11/06 03:52:35;;;;;;;24.17;13.43;;;;;;;11.43;80.02;96832.81;4969072;28;20196;-74
2022/11/06 03:55:10;;;;;;;26.23;15.20;;;;;;;11.32;81.16;96832.50;4969388;28;20225;-76
2022/11/06 03:57:57;;;;;;;25.37;15.27;;;;;;;11.06;82.40;96830.44;4968678;28;20193;-75
2022/11/06 04:00:24;;;;;;;26.13;16.07;;;;;;;11.01;83.42;96833.25;4967622;28;20222;-74
2022/11/06 04:03:03;;;;;;;23.63;14.47;;;;;;;11.14;83.00;96842.09;4968943;28;20192;-74
2022/11/06 04:05:46;;;;;;;25.13;15.87;;;;;;;11.28;82.54;96842.22;4968441;28;20232;-74
2022/11/06 04:13:57;;;;;;;24.40;16.57;;;;;;;11.23;83.10;96848.56;4968639;28;20193;-74
2022/11/06 04:16:26;;;;;;;26.77;17.30;;;;;;;11.21;83.86;96858.97;4968718;28;20335;-74
2022/11/06 04:18:53;;;;;;;32.00;16.93;;;;;;;11.37;83.34;96852.09;4968473;28;20596;-74
2022/11/06 04:21:31;;;;;;;26.17;16.00;;;;;;;11.46;82.80;96854.22;4967661;28;20612;-73
2022/11/06 04:27:00;;;;;;;24.53;15.00;;;;;;;11.58;81.34;96844.94;4968439;28;21188;-73
2022/11/06 04:29:54;;;;;;;26.33;14.53;;;;;;;11.72;80.81;96854.63;4968583;28;20230;-74
2022/11/06 04:32:21;;;;;;;24.90;14.80;;;;;;;11.59;80.72;96861.34;4968021;28;20193;-74
2022/11/06 04:34:53;;;;;;;23.90;14.13;;;;;;;11.57;80.50;96853.66;4968614;28;20667;-74
2022/11/06 04:37:22;;;;;;;21.87;13.83;;;;;;;11.61;79.75;96862.94;4968290;28;20284;-74
2022/11/06 04:39:59;;;;;;;21.23;13.57;;;;;;;11.56;80.03;96862.34;4968198;28;20185;-74
2022/11/06 04:42:46;;;;;;;23.17;14.53;;;;;;;11.64;79.30;96859.38;4968456;28;20642;-74
2022/11/06 04:45:22;;;;;;;27.70;15.50;;;;;;;11.34;79.97;96862.63;4967699;28;20223;-74
2022/11/06 04:47:52;;;;;;;24.50;15.80;;;;;;;11.21;80.53;96871.13;4968858;28;20188;-74
2022/11/06 04:50:21;;;;;;;29.40;17.17;;;;;;;11.02;81.38;96860.00;4968197;28;20235;-74
2022/11/06 04:52:50;;;;;;;27.20;15.87;;;;;;;10.92;82.58;96864.78;4950895;28;20228;-74
2022/11/06 04:55:17;;;;;;;23.70;15.27;;;;;;;10.88;82.93;96850.31;4950910;28;20681;-74
2022/11/06 04:57:44;;;;;;;22.60;15.07;;;;;;;11.07;82.92;96869.22;4967885;28;20281;-73
2022/11/06 05:00:15;;;;;;;25.23;16.70;;;;;;;11.25;81.86;96863.09;4968592;28;20184;-74
2022/11/06 05:02:42;;;;;;;29.17;16.23;;;;;;;11.27;81.61;96868.22;4967604;28;20675;-74
2022/11/06 05:05:09;;;;;;;24.70;16.30;;;;;;;11.39;82.38;96876.22;4968141;28;20224;-74
2022/11/06 05:07:35;;;;;;;24.50;15.07;;;;;;;11.39;81.33;96884.00;4968092;28;20199;-74
2022/11/06 05:10:03;;;;;;;25.07;14.80;;;;;;;11.34;81.76;96873.00;4967935;28;20188;-75
2022/11/06 05:12:31;;;;;;;22.63;15.17;;;;;;;11.50;81.45;96869.63;4968193;28;20193;-74
2022/11/06 05:14:58;;;;;;;24.40;14.80;;;;;;;11.55;81.22;96865.03;4967722;28;20280;-75
2022/11/06 05:17:25;;;;;;;26.43;15.73;;;;;;;11.62;80.22;96869.81;4968310;28;20197;-75
2022/11/06 05:19:52;;;;;;;27.73;15.20;;;;;;;11.43;81.46;96871.69;4969538;28;20222;-74
2022/11/06 05:25:04;;;;;;;33.43;15.43;;;;;;;11.45;80.54;96873.28;4971517;28;20229;-75
2022/11/06 05:27:31;;;;;;;20.60;13.23;;;;;;;11.53;80.57;96877.22;4971775;28;20211;-76
2022/11/06 05:29:58;;;;;;;29.80;15.37;;;;;;;11.60;80.05;96874.25;4971877;28;20207;-76
2022/11/06 05:32:24;;;;;;;23.60;13.97;;;;;;;11.36;79.82;96857.34;4970039;28;20199;-74
2022/11/06 05:34:51;;;;;;;20.67;14.57;;;;;;;11.66;80.00;96889.53;4972064;28;20200;-75
2022/11/06 05:37:18;;;;;;;25.93;14.83;;;;;;;11.89;79.36;96885.72;4971285;28;20201;-75
2022/11/06 05:39:46;;;;;;;22.60;14.90;;;;;;;11.91;78.92;96891.66;4938500;28;20193;-74
2022/11/06 05:42:13;;;;;;;25.27;15.87;;;;;;;12.04;78.59;96895.25;4971285;28;20223;-74
2022/11/06 05:44:41;;;;;;;23.63;15.60;;;;;;;12.13;78.53;96899.97;4971287;28;20216;-75
2022/11/06 05:47:08;;;;;;;25.33;14.97;;;;;;;12.18;78.45;96895.34;4971493;28;20196;-74
2022/11/06 05:49:35;;;;;;;27.67;14.67;;;;;;;12.12;78.28;96903.47;4971494;28;20221;-75
2022/11/06 05:52:02;;;;;;;38.43;14.83;;;;;;;12.18;77.97;96900.53;4971834;28;20740;-74
2022/11/06 05:54:29;;;;;;;25.93;13.20;;;;;;;12.20;77.52;96911.69;4971027;28;20185;-74
2022/11/06 05:56:55;;;;;;;21.20;12.97;;;;;;;12.27;76.60;96902.66;4971405;28;20190;-74
2022/11/06 05:59:22;;;;;;;27.63;14.23;;;;;;;12.19;76.67;96904.81;4971011;28;20666;-74
2022/11/06 06:01:49;;;;;;;25.73;15.47;;;;;;;12.20;76.71;96911.69;4971140;28;20688;-75
2022/11/06 06:04:16;;;;;;;24.50;15.60;;;;;;;12.04;77.47;96922.06;4970987;28;20679;-73
2022/11/06 06:06:43;;;;;;;30.70;16.87;;;;;;;11.98;78.85;96922.38;4971265;28;20654;-74
2022/11/06 06:09:10;;;;;;;28.53;17.20;;;;;;;11.91;79.15;96928.81;4971347;28;20201;-75
2022/11/06 06:11:37;;;;;;;23.77;14.90;;;;;;;11.89;80.18;96930.66;4970557;28;20195;-76
2022/11/06 06:14:04;;;;;;;22.03;14.67;;;;;;;11.80;80.27;96933.75;4969955;28;20911;-74
2022/11/06 06:16:31;;;;;;;24.67;15.40;;;;;;;11.91;80.08;96930.59;4953188;28;20188;-75
2022/11/06 06:18:58;;;;;;;28.37;16.23;;;;;;;11.87;79.15;96931.66;4970684;28;20690;-73
2022/11/06 06:21:25;;;;;;;22.83;16.03;;;;;;;11.64;79.89;96919.03;4970357;28;20309;-74
2022/11/06 06:23:52;;;;;;;32.23;18.10;;;;;;;11.83;80.53;96943.13;4970490;28;20209;-75
2022/11/06 06:26:19;;;;;;;36.77;19.73;;;;;;;11.85;81.01;96951.66;4970512;28;20233;-75
2022/11/06 06:28:47;;;;;;;31.13;15.67;;;;;;;11.93;81.00;96950.31;4969801;28;20658;-75
2022/11/06 06:31:15;;;;;;;31.83;16.07;;;;;;;12.07;80.28;96952.22;4952969;28;20209;-74
2022/11/06 06:33:42;;;;;;;32.53;16.27;;;;;;;11.98;81.03;96953.53;4970005;28;20620;-75
2022/11/06 06:36:09;;;;;;;31.33;16.87;;;;;;;12.03;80.64;96961.94;4970080;28;21011;-76
2022/11/06 06:38:35;;;;;;;25.47;15.97;;;;;;;12.04;81.62;96961.00;4970457;28;20240;-75
2022/11/06 06:41:04;;;;;;;32.20;16.73;;;;;;;12.12;80.95;96960.56;4970031;28;20195;-74
2022/11/06 06:43:32;;;;;;;24.37;16.60;;;;;;;12.15;81.08;96969.06;4968879;28;20675;-75
2022/11/06 06:46:01;;;;;;;43.10;22.97;;;;;;;12.28;80.37;96975.25;4969517;28;20222;-73
2022/11/06 06:48:28;;;;;;;25.40;16.77;;;;;;;12.23;79.87;96984.22;4969867;28;20585;-73
2022/11/06 06:50:56;;;;;;;25.90;15.57;;;;;;;12.06;80.20;96992.91;4969564;28;20197;-74
2022/11/06 06:53:23;;;;;;;28.27;16.83;;;;;;;11.95;81.45;96986.59;4967205;28;20273;-74
2022/11/06 06:55:50;;;;;;;27.97;16.50;;;;;;;11.82;81.83;96990.72;4952490;28;20194;-74
2022/11/06 06:58:18;;;;;;;27.00;16.33;;;;;;;11.81;83.10;96991.66;4969824;28;20617;-74
2022/11/06 07:00:45;;;;;;;27.13;17.00;;;;;;;11.90;83.06;96996.38;4936325;28;20197;-73
2022/11/06 07:03:12;;;;;;;27.77;17.63;;;;;;;12.11;81.69;96995.25;4969357;28;20284;-74
2022/11/06 07:05:39;;;;;;;25.63;17.53;;;;;;;12.36;81.31;96993.03;4969280;28;20317;-74
2022/11/06 07:08:06;;;;;;;27.13;16.03;;;;;;;12.51;81.07;96999.19;4970773;28;20188;-75
2022/11/06 07:10:33;;;;;;;24.33;16.60;;;;;;;12.56;80.58;96999.75;4970012;28;21021;-73
2022/11/06 07:13:04;;;;;;;28.03;15.70;;;;;;;12.66;80.66;96999.16;4969478;28;20218;-75
2022/11/06 07:15:31;;;;;;;30.03;17.70;;;;;;;12.90;79.93;97002.19;4969615;28;20189;-75
2022/11/06 07:18:05;;;;;;;25.33;15.93;;;;;;;13.21;79.11;97004.75;4969768;28;20190;-75
2022/11/06 07:20:33;;;;;;;25.03;15.57;;;;;;;13.38;77.23;96990.78;4984111;28;20308;-73
2022/11/06 07:23:05;;;;;;;27.70;15.33;;;;;;;13.57;76.94;97004.41;4968656;28;20625;-75
2022/11/06 07:25:32;;;;;;;24.20;15.93;;;;;;;13.67;76.65;97005.56;4968943;28;20232;-77
2022/11/06 07:28:08;;;;;;;25.23;15.53;;;;;;;13.82;75.95;97002.06;4984629;28;20292;-74
2022/11/06 07:30:36;;;;;;;29.07;14.50;;;;;;;13.91;75.36;96993.69;4969409;28;20195;-74
2022/11/06 07:33:04;;;;;;;23.97;13.87;;;;;;;14.06;74.81;97003.19;4984146;28;20204;-75
2022/11/06 07:35:33;;;;;;;23.43;14.93;;;;;;;13.85;75.18;97001.88;4968284;28;20450;-74
2022/11/06 07:38:05;;;;;;;25.90;14.50;;;;;;;13.82;75.56;96999.47;4968777;28;20203;-75
2022/11/06 07:40:33;;;;;;;27.70;14.50;;;;;;;13.91;74.92;96992.88;4969120;28;20558;-74
2022/11/06 07:43:04;;;;;;;22.13;13.27;;;;;;;14.05;74.56;96998.94;4968358;28;20601;-74
2022/11/06 07:45:31;;;;;;;24.63;14.43;;;;;;;14.18;74.03;96999.03;4968912;28;20258;-74
2022/11/06 07:47:59;;;;;;;38.07;15.50;;;;;;;14.29;73.89;96996.63;4968991;28;20200;-75
2022/11/06 07:50:26;;;;;;;30.27;14.40;;;;;;;14.29;73.74;97000.06;4968866;28;20189;-74
2022/11/06 07:52:53;;;;;;;30.63;14.80;;;;;;;14.27;73.96;96990.66;4969163;28;20220;-74
2022/11/06 07:55:21;;;;;;;25.87;15.17;;;;;;;14.26;74.49;97007.22;4968414;28;20558;-74
2022/11/06 07:57:48;;;;;;;22.67;13.67;;;;;;;14.25;74.69;96997.72;4969126;28;20195;-74
2022/11/06 08:00:15;;;;;;;24.07;15.13;;;;;;;14.42;74.40;97001.00;4968433;28;20559;-74
2022/11/06 08:02:42;;;;;;;26.77;14.60;;;;;;;14.38;73.81;96983.06;4968823;28;20713;-74
2022/11/06 08:05:09;;;;;;;26.37;15.10;;;;;;;14.48;73.97;97003.25;4968038;28;20231;-74
2022/11/06 08:07:36;;;;;;;22.07;14.80;;;;;;;14.62;73.49;96995.41;4966706;28;20290;-74
2022/11/06 08:10:04;;;;;;;27.97;14.53;;;;;;;14.62;73.45;96990.19;4966587;28;20239;-73
2022/11/06 08:12:31;;;;;;;23.23;14.20;;;;;;;14.75;73.17;96986.81;4968291;28;20184;-74
2022/11/06 08:14:57;;;;;;;24.00;14.63;;;;;;;14.96;72.38;96985.44;4968468;28;20287;-74
2022/11/06 08:17:26;;;;;;;21.03;13.33;;;;;;;14.96;71.88;96985.44;4967766;28;20754;-75
2022/11/06 08:19:53;;;;;;;24.63;14.33;;;;;;;15.18;71.18;96989.19;4968800;28;20232;-74
2022/11/06 08:22:20;;;;;;;25.90;14.70;;;;;;;15.28;70.68;96973.75;4968078;28;20197;-76
2022/11/06 08:24:47;;;;;;;22.63;13.10;;;;;;;15.52;70.09;96987.00;4966692;28;20207;-75
2022/11/06 08:27:14;;;;;;;20.43;12.83;;;;;;;15.69;69.84;96986.72;4967796;28;20271;-78
2022/11/06 08:29:40;;;;;;;28.43;13.87;;;;;;;15.96;68.91;96985.69;4967642;28;20207;-75
2022/11/06 08:32:07;;;;;;;22.40;14.10;;;;;;;16.02;68.52;96984.44;4950694;28;20189;-74
2022/11/06 08:34:35;;;;;;;25.93;15.33;;;;;;;15.93;68.67;96975.44;4967949;28;20223;-74
2022/11/06 08:37:01;;;;;;;21.60;13.33;;;;;;;15.96;68.44;96988.31;4968192;28;20663;-74
2022/11/06 08:39:29;;;;;;;22.90;14.23;;;;;;;15.95;69.15;96975.38;4967375;28;20215;-76
2022/11/06 08:41:56;;;;;;;27.00;15.00;;;;;;;16.11;68.56;96992.50;4966362;28;20653;-76
2022/11/06 08:44:23;;;;;;;23.80;14.27;;;;;;;16.15;68.30;96988.72;4966001;28;20220;-75
2022/11/06 08:46:50;;;;;;;27.00;14.60;;;;;;;16.17;68.25;96981.63;4967485;28;20634;-76
2022/11/06 08:49:18;;;;;;;22.33;15.50;;;;;;;16.30;68.07;96979.81;4967894;28;20220;-75
2022/11/06 08:51:45;;;;;;;33.43;16.17;;;;;;;16.43;67.50;96986.81;4967144;28;20220;-75
2022/11/06 08:54:12;;;;;;;25.43;16.23;;;;;;;16.40;67.21;96987.88;4967267;28;20697;-76
2022/11/06 08:56:39;;;;;;;29.53;15.00;;;;;;;16.40;67.72;96984.41;4967027;28;20340;-75
2022/11/06 08:59:06;;;;;;;28.10;14.90;;;;;;;16.25;67.93;96979.31;4966428;28;20756;-75
2022/11/06 09:01:33;;;;;;;27.13;15.57;;;;;;;16.34;67.88;96988.31;4967317;28;20194;-75
2022/11/06 09:04:00;;;;;;;29.63;16.83;;;;;;;16.27;68.16;96990.50;4967539;28;20293;-74
2022/11/06 09:06:27;;;;;;;26.23;15.47;;;;;;;16.12;68.99;96995.94;4950164;28;20287;-75
2022/11/06 09:08:55;;;;;;;30.27;17.20;;;;;;;16.26;68.56;96982.75;4967265;28;20189;-76
2022/11/06 09:11:22;;;;;;;24.83;15.80;;;;;;;16.40;68.25;96992.25;4967077;28;20229;-75
2022/11/06 09:13:49;;;;;;;25.13;13.70;;;;;;;16.43;67.88;96989.41;4966717;28;20549;-75
2022/11/06 09:16:16;;;;;;;24.77;15.57;;;;;;;16.47;68.05;96996.09;4966072;28;20208;-74
2022/11/06 09:18:43;;;;;;;27.93;15.00;;;;;;;16.57;68.02;96991.97;4966831;28;20292;-74
2022/11/06 09:21:10;;;;;;;26.80;14.97;;;;;;;16.62;67.79;97000.31;4949315;28;20235;-73
2022/11/06 09:23:37;;;;;;;31.23;14.63;;;;;;;16.66;67.64;97001.75;4965474;28;20213;-74
2022/11/06 09:26:04;;;;;;;25.63;15.03;;;;;;;16.67;67.39;96999.03;4965576;28;20228;-74
2022/11/06 09:28:30;;;;;;;27.60;14.90;;;;;;;16.72;67.38;96989.09;4950351;28;20224;-74
2022/11/06 09:30:57;;;;;;;27.40;14.87;;;;;;;16.81;67.18;96987.59;4966713;28;20193;-74
2022/11/06 09:33:24;;;;;;;24.63;13.20;;;;;;;16.87;67.22;96992.41;4967232;28;20202;-74
2022/11/06 09:35:51;;;;;;;20.67;13.50;;;;;;;16.89;66.92;96996.56;4967386;28;20316;-75
2022/11/06 09:38:18;;;;;;;21.57;13.80;;;;;;;16.89;66.88;96996.56;4967089;28;20243;-74
2022/11/06 09:40:58;;;;;;;27.30;15.50;;;;;;;16.95;66.94;96993.53;4966852;28;20247;-74
2022/11/06 09:43:51;;;;;;;22.53;13.40;;;;;;;16.83;67.53;96977.88;4965326;28;20289;-75
2022/11/06 09:46:52;;;;;;;21.37;13.73;;;;;;;16.93;66.92;96989.34;4965798;28;20748;-74
2022/11/06 09:49:19;;;;;;;26.90;14.10;;;;;;;16.88;66.76;96991.44;4967223;28;20204;-74
2022/11/06 09:51:54;;;;;;;23.77;14.33;;;;;;;17.03;66.51;96995.56;4967092;28;20185;-74
2022/11/06 09:55:03;;;;;;;28.57;15.97;;;;;;;17.20;66.16;96992.56;4967375;28;20223;-74
2022/11/06 09:57:40;;;;;;;27.63;15.37;;;;;;;17.25;66.08;96989.63;4938456;28;20220;-74
2022/11/06 10:00:11;;;;;;;27.63;14.40;;;;;;;17.28;66.20;96995.47;4967004;28;20200;-76
2022/11/06 10:02:44;;;;;;;25.13;14.00;;;;;;;17.05;66.52;96985.81;4965580;28;20239;-75
2022/11/06 10:05:17;;;;;;;27.00;13.93;;;;;;;17.28;66.55;96992.00;4966342;28;20271;-75
2022/11/06 10:07:45;;;;;;;25.20;13.10;;;;;;;17.30;65.98;96983.09;4971055;28;20189;-75
2022/11/06 10:10:22;;;;;;;23.20;12.50;;;;;;;17.41;65.34;96980.53;4970060;28;20188;-76
2022/11/06 10:13:11;;;;;;;22.70;11.73;;;;;;;17.56;65.24;96984.66;4969434;28;20192;-76
2022/11/06 10:15:57;;;;;;;21.13;13.47;;;;;;;17.53;65.49;96984.91;4970587;28;20583;-77
2022/11/06 10:18:39;;;;;;;21.80;11.63;;;;;;;17.62;64.88;96978.97;4970064;28;20196;-76
2022/11/06 10:21:18;;;;;;;21.53;11.70;;;;;;;17.66;64.92;96971.72;4969419;28;20221;-76
2022/11/06 10:23:56;;;;;;;24.37;11.50;;;;;;;17.71;64.48;96973.03;4970343;28;20194;-77
2022/11/06 10:26:40;;;;;;;20.37;12.53;;;;;;;17.85;64.04;96972.00;4968939;28;20216;-77
2022/11/06 10:29:52;;;;;;;17.90;11.50;;;;;;;17.93;64.15;96971.44;4969101;28;20690;-76
2022/11/06 10:32:49;;;;;;;16.77;10.30;;;;;;;17.98;63.93;96958.78;4969873;28;20280;-78
2022/11/06 10:35:29;;;;;;;18.80;11.03;;;;;;;18.06;63.56;96946.78;4970370;28;21040;-76
2022/11/06 10:38:28;;;;;;;21.33;11.23;;;;;;;18.14;63.50;96969.75;4970720;28;20187;-76
2022/11/06 10:40:55;;;;;;;20.63;11.23;;;;;;;18.16;63.82;96952.13;4970006;28;20586;-77
2022/11/06 10:43:30;;;;;;;22.03;12.00;;;;;;;18.29;63.69;96953.72;4969929;28;20186;-77
2022/11/06 10:46:02;;;;;;;21.93;11.73;;;;;;;18.41;63.37;96949.28;4969849;28;20237;-77
2022/11/06 10:49:23;;;;;;;18.20;10.53;;;;;;;18.52;62.54;96934.41;4968707;28;20222;-78
2022/11/06 10:52:22;;;;;;;21.03;10.20;;;;;;;18.63;62.72;96942.25;4970665;28;20197;-75
2022/11/06 10:55:05;;;;;;;17.37;11.33;;;;;;;18.55;63.22;96939.41;4970797;28;20201;-78
2022/11/06 10:57:38;;;;;;;20.07;9.87;;;;;;;18.09;64.52;96940.47;4952192;28;20251;-77
2022/11/06 11:00:10;;;;;;;15.67;10.33;;;;;;;18.18;64.54;96937.97;4968782;28;20196;-77
2022/11/06 11:03:15;;;;;;;20.93;10.20;;;;;;;18.31;64.73;96937.84;4969548;28;20218;-76
2022/11/06 11:05:43;;;;;;;18.57;10.20;;;;;;;18.45;64.06;96937.63;4959270;28;20231;-76
2022/11/06 11:08:29;;;;;;;19.43;10.67;;;;;;;18.37;64.25;96924.25;4969318;28;20697;-76
2022/11/06 11:11:04;;;;;;;19.10;11.13;;;;;;;18.51;63.53;96922.25;4969370;28;20199;-75
2022/11/06 11:13:32;;;;;;;16.97;9.67;;;;;;;18.40;63.84;96929.28;4969875;28;20601;-76
2022/11/06 11:16:01;;;;;;;16.20;10.07;;;;;;;18.45;63.85;96924.50;4969213;28;20221;-76
2022/11/06 11:18:32;;;;;;;16.17;9.57;;;;;;;18.35;63.70;96936.66;4968342;28;20210;-76
2022/11/06 11:21:08;;;;;;;18.67;9.43;;;;;;;18.38;63.65;96931.19;4969575;28;20239;-76
2022/11/06 11:23:35;;;;;;;15.77;9.20;;;;;;;18.43;63.46;96921.16;4984609;28;20197;-77
2022/11/06 11:26:17;;;;;;;19.33;9.33;;;;;;;18.55;62.93;96917.59;4988958;28;20224;-76
2022/11/06 11:28:50;;;;;;;25.13;9.97;;;;;;;18.69;62.74;96912.09;4968903;28;20214;-77
2022/11/06 11:31:18;;;;;;;15.47;8.50;;;;;;;18.64;62.65;96916.88;4983032;28;20195;-77
2022/11/06 11:33:54;;;;;;;15.93;8.70;;;;;;;18.85;61.94;96924.81;4983517;28;20286;-78
2022/11/06 11:36:22;;;;;;;16.50;8.97;;;;;;;18.89;62.14;96908.69;4978458;28;20210;-77
2022/11/06 11:38:50;;;;;;;13.00;8.60;;;;;;;19.03;61.37;96911.03;4989165;28;20218;-78
2022/11/06 11:41:22;;;;;;;18.27;9.40;;;;;;;18.83;62.10;96917.06;4988201;28;20190;-78
2022/11/06 11:44:04;;;;;;;13.17;8.63;;;;;;;18.82;62.12;96912.75;4988524;28;20665;-77
2022/11/06 11:46:32;;;;;;;13.33;9.40;;;;;;;18.97;61.37;96902.81;4988047;28;20226;-78
2022/11/06 11:49:01;;;;;;;14.93;8.83;;;;;;;19.00;61.25;96907.81;4979201;28;20210;-78
2022/11/06 11:51:34;;;;;;;13.73;8.57;;;;;;;19.11;61.14;96905.13;4970595;28;20279;-72
2022/11/06 11:54:12;;;;;;;13.23;8.53;;;;;;;19.10;61.05;96903.50;4968176;28;20692;-78